createdAt,value
2017-08-13T00:02:09.282Z,5.37
2017-08-13T00:04:37.310Z,4.90
2017-08-13T00:07:06.238Z,5.70
2017-08-13T00:09:34.262Z,4.50
2017-08-13T00:12:02.297Z,5.37
2017-08-13T00:14:31.282Z,4.90
2017-08-13T00:17:00.105Z,4.90
2017-08-13T00:19:28.137Z,5.43
2017-08-13T00:21:57.127Z,4.67
2017-08-13T00:24:25.149Z,5.10
2017-08-13T00:26:53.202Z,5.00
2017-08-13T00:29:21.214Z,6.00
2017-08-13T00:31:49.241Z,5.00
2017-08-13T00:34:17.269Z,5.07
2017-08-13T00:36:45.293Z,6.30
2017-08-13T00:39:13.319Z,5.13
2017-08-13T00:41:41.329Z,5.73
2017-08-13T00:44:09.345Z,5.37
2017-08-13T00:46:37.374Z,5.30
2017-08-13T00:49:05.448Z,6.10
2017-08-13T00:51:33.465Z,4.60
2017-08-13T00:54:02.453Z,4.80
2017-08-13T00:56:30.481Z,5.50
2017-08-13T00:58:59.145Z,6.10
2017-08-13T01:01:28.106Z,9.77
2017-08-13T01:03:56.137Z,5.00
2017-08-13T01:06:24.149Z,5.13
2017-08-13T01:08:52.172Z,5.03
2017-08-13T01:11:20.188Z,5.23
2017-08-13T01:13:48.213Z,5.33
2017-08-13T01:16:16.226Z,4.40
2017-08-13T01:18:44.265Z,5.83
2017-08-13T01:21:13.285Z,5.10
2017-08-13T01:23:41.301Z,5.27
2017-08-13T01:26:09.337Z,5.63
2017-08-13T01:28:37.361Z,4.90
2017-08-13T01:31:05.377Z,5.13
2017-08-13T01:33:33.417Z,5.13
2017-08-13T01:36:01.433Z,5.20
2017-08-13T01:38:29.457Z,13.63
2017-08-13T01:40:58.492Z,4.83
2017-08-13T01:43:27.285Z,5.23
2017-08-13T01:45:58.305Z,5.20
2017-08-13T01:48:26.317Z,4.73
2017-08-13T01:50:54.332Z,5.50
2017-08-13T01:53:23.352Z,5.27
2017-08-13T01:55:51.377Z,4.43
2017-08-13T01:58:19.409Z,4.53
2017-08-13T02:00:47.453Z,4.77
2017-08-13T02:03:16.232Z,5.27
2017-08-13T02:05:44.249Z,5.07
2017-08-13T02:08:12.284Z,5.40
2017-08-13T02:10:41.069Z,5.17
2017-08-13T02:13:10.861Z,5.30
2017-08-13T02:15:38.903Z,5.10
2017-08-13T02:18:06.920Z,8.30
2017-08-13T02:20:35.700Z,5.00
2017-08-13T02:23:03.728Z,4.63
2017-08-13T02:25:31.740Z,9.83
2017-08-13T02:28:00.540Z,5.10
2017-08-13T02:30:28.589Z,4.63
2017-08-13T02:32:56.608Z,5.67
2017-08-13T02:35:24.632Z,5.20
2017-08-13T02:37:53.621Z,5.50
2017-08-13T02:40:21.641Z,5.83
2017-08-13T02:42:49.652Z,7.10
2017-08-13T02:45:17.680Z,5.13
2017-08-13T02:47:45.709Z,8.83
2017-08-13T02:50:13.720Z,5.93
2017-08-13T02:52:41.756Z,4.93
2017-08-13T02:55:10.541Z,7.00
2017-08-13T02:57:39.331Z,5.80
2017-08-13T03:00:08.140Z,5.47
2017-08-13T03:02:36.156Z,5.37
2017-08-13T03:05:04.180Z,5.60
2017-08-13T03:07:32.219Z,5.33
2017-08-13T03:10:00.245Z,5.43
2017-08-13T03:12:29.264Z,4.80
2017-08-13T03:14:57.291Z,5.97
2017-08-13T03:17:25.311Z,5.60
2017-08-13T03:19:53.331Z,5.53
2017-08-13T03:22:21.356Z,5.10
2017-08-13T03:24:50.332Z,4.83
2017-08-13T03:27:22.224Z,4.83
2017-08-13T03:29:51.202Z,4.90
2017-08-13T03:32:20.184Z,5.40
2017-08-13T03:34:48.216Z,5.67
2017-08-13T03:37:17.238Z,5.50
2017-08-13T03:39:45.251Z,4.87
2017-08-13T03:42:13.268Z,5.60
2017-08-13T03:44:41.288Z,5.40
2017-08-13T03:47:10.240Z,5.47
2017-08-13T03:49:38.271Z,5.80
2017-08-13T03:52:06.288Z,5.23
2017-08-13T03:54:34.307Z,6.10
2017-08-13T03:57:02.334Z,5.13
2017-08-13T03:59:32.335Z,5.73
2017-08-13T04:02:00.356Z,5.43
2017-08-13T04:04:28.392Z,5.10
2017-08-13T04:06:56.404Z,5.23
2017-08-13T04:09:24.419Z,5.23
2017-08-13T04:11:54.451Z,6.00
2017-08-13T04:14:22.480Z,5.27
2017-08-13T04:16:51.511Z,5.00
2017-08-13T04:19:19.573Z,5.00
2017-08-13T04:21:47.587Z,5.03
2017-08-13T04:24:15.608Z,5.43
2017-08-13T04:26:44.598Z,5.17
2017-08-13T04:29:12.627Z,5.83
2017-08-13T04:31:40.655Z,7.30
2017-08-13T04:34:11.391Z,5.87
2017-08-13T04:36:39.431Z,6.47
2017-08-13T04:39:08.443Z,5.60
2017-08-13T04:41:37.432Z,6.23
2017-08-13T04:44:07.439Z,5.37
2017-08-13T04:46:35.456Z,6.07
2017-08-13T04:49:03.483Z,5.70
2017-08-13T04:51:31.507Z,5.90
2017-08-13T04:53:59.978Z,5.60
2017-08-13T04:56:27.971Z,5.07
2017-08-13T04:58:55.987Z,5.83
2017-08-13T05:01:24.767Z,6.13
2017-08-13T05:03:53.742Z,6.70
2017-08-13T05:06:21.763Z,6.03
2017-08-13T05:08:49.778Z,5.80
2017-08-13T05:11:17.822Z,6.03
2017-08-13T05:13:46.847Z,6.20
2017-08-13T05:16:14.862Z,8.33
2017-08-13T05:18:42.878Z,7.63
2017-08-13T05:21:10.898Z,6.53
2017-08-13T05:23:38.930Z,6.10
2017-08-13T05:26:06.966Z,6.40
2017-08-13T05:28:34.979Z,6.67
2017-08-13T05:31:03.135Z,7.33
2017-08-13T05:33:31.162Z,8.00
2017-08-13T05:35:59.174Z,6.70
2017-08-13T05:38:27.194Z,6.97
2017-08-13T05:40:55.238Z,7.70
2017-08-13T05:43:24.030Z,6.10
2017-08-13T05:45:52.043Z,7.10
2017-08-13T05:48:23.434Z,7.40
2017-08-13T05:50:51.454Z,7.30
2017-08-13T05:53:19.474Z,11.10
2017-08-13T05:55:47.511Z,8.97
2017-08-13T05:58:15.518Z,8.40
2017-08-13T06:00:45.307Z,11.10
2017-08-13T06:03:13.354Z,7.37
2017-08-13T06:05:41.370Z,7.03
2017-08-13T06:08:10.154Z,6.80
2017-08-13T06:10:38.950Z,7.83
2017-08-13T06:13:07.726Z,7.50
2017-08-13T06:15:35.746Z,7.70
2017-08-13T06:18:04.795Z,10.00
2017-08-13T06:20:35.506Z,7.27
2017-08-13T06:23:05.538Z,7.83
2017-08-13T06:25:33.549Z,7.33
2017-08-13T06:28:01.574Z,8.00
2017-08-13T06:30:31.598Z,7.43
2017-08-13T06:32:59.642Z,9.10
2017-08-13T06:35:28.634Z,7.60
2017-08-13T06:37:56.666Z,7.57
2017-08-13T06:40:26.622Z,6.67
2017-08-13T06:42:54.652Z,6.87
2017-08-13T06:45:22.670Z,6.90
2017-08-13T06:47:50.694Z,6.43
2017-08-13T06:50:18.702Z,6.97
2017-08-13T06:52:49.858Z,7.30
2017-08-13T06:55:17.887Z,8.10
2017-08-13T06:57:46.901Z,7.83
2017-08-13T07:00:16.946Z,7.70
2017-08-13T07:02:44.961Z,6.50
2017-08-13T07:05:12.989Z,9.20
2017-08-13T07:07:41.777Z,8.13
2017-08-13T07:10:10.565Z,8.80
2017-08-13T07:12:40.245Z,8.70
2017-08-13T07:15:09.254Z,8.37
2017-08-13T07:17:37.274Z,7.53
2017-08-13T07:20:06.305Z,7.30
2017-08-13T07:22:34.326Z,6.83
2017-08-13T07:25:02.346Z,6.97
2017-08-13T07:27:30.369Z,6.10
2017-08-13T07:29:59.325Z,6.87
2017-08-13T07:32:29.021Z,7.60
2017-08-13T07:35:00.470Z,7.20
2017-08-13T07:37:30.481Z,6.47
2017-08-13T07:39:58.497Z,6.33
2017-08-13T07:42:26.525Z,6.40
2017-08-13T07:44:54.545Z,7.03
2017-08-13T07:47:23.473Z,8.37
2017-08-13T07:49:51.505Z,6.27
2017-08-13T07:52:19.518Z,6.03
2017-08-13T07:54:48.505Z,12.63
2017-08-13T07:57:17.522Z,7.70
2017-08-13T07:59:45.525Z,5.77
2017-08-13T08:02:13.541Z,7.43
2017-08-13T08:04:44.021Z,8.73
2017-08-13T08:07:12.038Z,5.27
2017-08-13T08:09:40.061Z,5.50
2017-08-13T08:12:08.098Z,6.97
2017-08-13T08:14:36.113Z,6.10
2017-08-13T08:17:04.124Z,5.60
2017-08-13T08:19:32.157Z,7.13
2017-08-13T08:22:00.173Z,5.60
2017-08-13T08:24:29.152Z,5.17
2017-08-13T08:26:57.389Z,4.87
2017-08-13T08:29:25.397Z,4.70
2017-08-13T08:31:54.389Z,6.43
2017-08-13T08:34:22.489Z,4.80
2017-08-13T08:36:51.286Z,4.80
2017-08-13T08:39:19.317Z,4.50
2017-08-13T08:41:49.337Z,4.30
2017-08-13T08:44:17.357Z,4.23
2017-08-13T08:46:47.088Z,4.93
2017-08-13T08:49:15.109Z,7.00
2017-08-13T08:51:43.889Z,4.33
2017-08-13T08:54:13.675Z,4.43
2017-08-13T08:56:41.713Z,3.80
2017-08-13T08:59:09.728Z,6.70
2017-08-13T09:01:37.749Z,4.13
2017-08-13T09:04:05.772Z,6.03
2017-08-13T09:06:36.497Z,3.50
2017-08-13T09:09:08.257Z,4.83
2017-08-13T09:11:36.280Z,3.43
2017-08-13T09:14:04.293Z,3.83
2017-08-13T09:16:33.289Z,4.40
2017-08-13T09:19:01.300Z,4.33
2017-08-13T09:21:30.232Z,3.47
2017-08-13T09:23:58.272Z,3.50
2017-08-13T09:26:27.198Z,3.40
2017-08-13T09:28:58.749Z,3.47
2017-08-13T09:31:26.780Z,3.23
2017-08-13T09:33:54.800Z,3.40
2017-08-13T09:36:24.822Z,4.90
2017-08-13T09:38:52.872Z,4.87
2017-08-13T09:41:20.892Z,3.13
2017-08-13T09:43:48.944Z,2.83
2017-08-13T09:46:17.720Z,2.63
2017-08-13T09:48:47.737Z,4.93
2017-08-13T09:51:15.780Z,3.03
2017-08-13T09:53:43.800Z,3.53
2017-08-13T09:56:11.820Z,2.83
2017-08-13T09:58:39.860Z,2.93
2017-08-13T10:01:07.876Z,2.90
2017-08-13T10:03:35.891Z,2.60
2017-08-13T10:06:03.912Z,3.00
2017-08-13T10:08:31.936Z,2.97
2017-08-13T10:11:00.852Z,2.67
2017-08-13T10:13:28.888Z,2.50
2017-08-13T10:15:56.916Z,2.87
2017-08-13T10:18:24.932Z,1.97
2017-08-13T10:20:52.952Z,2.30
2017-08-13T10:23:21.731Z,2.10
2017-08-13T10:25:49.748Z,4.87
2017-08-13T10:28:17.792Z,4.53
2017-08-13T10:30:45.812Z,2.80
2017-08-13T10:33:16.935Z,3.07
2017-08-13T10:35:44.952Z,2.13
2017-08-13T10:38:14.967Z,2.10
2017-08-13T10:40:43.983Z,4.63
2017-08-13T10:43:12.003Z,2.60
2017-08-13T10:45:40.020Z,2.90
2017-08-13T10:48:08.059Z,3.90
2017-08-13T10:50:37.064Z,2.93
2017-08-13T10:53:05.080Z,2.20
2017-08-13T10:55:33.132Z,1.70
2017-08-13T10:58:01.151Z,2.00
2017-08-13T11:00:29.167Z,1.80
2017-08-13T11:02:57.959Z,2.03
2017-08-13T11:05:26.743Z,2.07
2017-08-13T11:07:55.531Z,4.30
2017-08-13T11:10:25.548Z,2.40
2017-08-13T11:12:54.331Z,1.83
2017-08-13T11:15:22.451Z,2.20
2017-08-13T11:17:51.216Z,2.13
2017-08-13T11:20:20.991Z,2.37
2017-08-13T11:22:49.019Z,1.80
2017-08-13T11:25:17.051Z,1.90
2017-08-13T11:27:45.067Z,2.37
2017-08-13T11:30:14.088Z,2.27
2017-08-13T11:32:42.116Z,2.10
2017-08-13T11:35:11.039Z,2.33
2017-08-13T11:37:40.771Z,2.87
2017-08-13T11:40:10.563Z,2.97
2017-08-13T11:42:38.578Z,2.23
2017-08-13T11:45:06.595Z,3.37
2017-08-13T11:47:34.622Z,4.93
2017-08-13T11:50:03.563Z,2.53
2017-08-13T11:52:31.580Z,2.17
2017-08-13T11:54:59.608Z,2.47
2017-08-13T11:57:27.618Z,2.03
2017-08-13T11:59:55.634Z,2.47
2017-08-13T12:02:25.661Z,2.00
2017-08-13T12:04:54.651Z,2.07
2017-08-13T12:07:24.352Z,1.80
2017-08-13T12:09:52.375Z,2.10
2017-08-13T12:12:20.391Z,1.90
2017-08-13T12:14:50.407Z,1.70
2017-08-13T12:17:18.430Z,1.67
2017-08-13T12:19:46.451Z,2.60
2017-08-13T12:22:15.439Z,1.60
2017-08-13T12:24:43.898Z,1.90
2017-08-13T12:27:11.910Z,2.27
2017-08-13T12:29:39.931Z,2.30
2017-08-13T12:32:07.958Z,2.10
2017-08-13T12:34:36.745Z,2.13
2017-08-13T12:37:05.526Z,2.83
2017-08-13T12:39:33.562Z,3.53
2017-08-13T12:42:02.574Z,2.47
2017-08-13T12:44:30.586Z,2.63
2017-08-13T12:46:58.614Z,2.90
2017-08-13T12:49:26.650Z,3.33
2017-08-13T12:51:56.602Z,2.27
2017-08-13T12:54:24.627Z,3.60
2017-08-13T12:57:10.186Z,2.73
2017-08-13T12:59:38.223Z,2.70
2017-08-13T13:02:10.991Z,2.30
2017-08-13T13:04:43.694Z,2.53
2017-08-13T13:07:19.426Z,2.70
2017-08-13T13:09:48.478Z,3.03
2017-08-13T13:12:18.265Z,2.90
2017-08-13T13:14:47.078Z,2.13
2017-08-13T13:17:15.134Z,2.53
2017-08-13T13:19:45.102Z,2.97
2017-08-13T13:22:13.131Z,3.27
2017-08-13T13:24:41.154Z,3.70
2017-08-13T13:27:10.146Z,1.93
2017-08-13T13:29:39.134Z,1.90
2017-08-13T13:32:07.163Z,3.40
2017-08-13T13:34:36.186Z,2.20
2017-08-13T13:37:04.202Z,2.30
2017-08-13T13:39:32.246Z,1.80
2017-08-13T13:42:00.273Z,2.13
2017-08-13T13:44:28.294Z,3.40
2017-08-13T13:46:59.017Z,2.27
2017-08-13T13:49:27.994Z,2.70
2017-08-13T13:51:56.013Z,2.03
2017-08-13T13:54:24.066Z,2.50
2017-08-13T13:56:55.686Z,5.03
2017-08-13T13:59:23.714Z,2.20
2017-08-13T14:01:52.649Z,1.97
2017-08-13T14:04:22.661Z,2.00
2017-08-13T14:06:51.673Z,3.23
2017-08-13T14:09:19.729Z,2.30
2017-08-13T14:11:47.750Z,2.10
2017-08-13T14:14:20.386Z,1.73
2017-08-13T14:16:53.977Z,2.57
2017-08-13T14:19:26.530Z,2.00
2017-08-13T14:21:56.473Z,1.60
2017-08-13T14:24:26.502Z,1.73
2017-08-13T14:26:58.758Z,1.67
2017-08-13T14:29:27.769Z,1.60
2017-08-13T14:31:55.798Z,1.03
2017-08-13T14:34:25.749Z,1.43
2017-08-13T14:36:54.733Z,1.63
2017-08-13T14:39:22.862Z,1.20
2017-08-13T14:41:51.553Z,1.33
2017-08-13T14:44:20.577Z,1.17
2017-08-13T14:46:50.593Z,1.20
2017-08-13T14:49:18.617Z,1.20
2017-08-13T14:51:49.705Z,1.90
2017-08-13T14:54:17.713Z,1.60
2017-08-13T14:56:45.741Z,1.20
2017-08-13T14:59:14.750Z,1.83
2017-08-13T15:01:42.781Z,1.43
2017-08-13T15:04:10.789Z,1.27
2017-08-13T15:06:40.697Z,1.10
2017-08-13T15:09:08.717Z,1.00
2017-08-13T15:11:38.669Z,1.23
2017-08-13T15:14:07.673Z,1.00
2017-08-13T15:16:35.696Z,1.30
2017-08-13T15:19:08.109Z,2.17
2017-08-13T15:21:36.120Z,1.67
2017-08-13T15:24:07.436Z,1.60
2017-08-13T15:26:35.461Z,1.40
2017-08-13T15:29:05.421Z,1.53
2017-08-13T15:31:33.469Z,1.63
2017-08-13T15:34:02.393Z,1.50
2017-08-13T15:36:32.324Z,1.20
2017-08-13T15:39:01.225Z,1.30
2017-08-13T15:41:30.197Z,1.80
2017-08-13T15:43:58.997Z,1.30
2017-08-13T15:46:27.028Z,4.33
2017-08-13T15:48:55.053Z,1.23
2017-08-13T15:51:23.085Z,1.40
2017-08-13T15:53:55.644Z,1.43
2017-08-13T15:56:24.564Z,1.30
2017-08-13T15:58:53.344Z,1.63
2017-08-13T16:01:26.816Z,1.57
2017-08-13T16:03:59.588Z,1.53
2017-08-13T16:06:31.368Z,1.60
2017-08-13T16:09:01.360Z,2.03
2017-08-13T16:11:29.384Z,1.20
2017-08-13T16:13:57.401Z,1.27
2017-08-13T16:16:29.944Z,1.50
2017-08-13T16:18:57.981Z,1.10
2017-08-13T16:21:30.332Z,1.50
2017-08-13T16:23:59.348Z,1.57
2017-08-13T16:26:30.044Z,1.80
2017-08-13T16:29:05.296Z,1.30
2017-08-13T16:31:37.353Z,1.63
2017-08-13T16:34:05.384Z,1.40
2017-08-13T16:36:33.405Z,3.67
2017-08-13T16:39:01.428Z,1.70
2017-08-13T16:41:34.160Z,1.30
2017-08-13T16:44:03.132Z,1.10
2017-08-13T16:46:31.155Z,1.47
2017-08-13T16:49:00.131Z,1.43
2017-08-13T16:51:42.172Z,1.47
2017-08-13T16:54:12.096Z,1.37
2017-08-13T16:56:40.120Z,1.47
2017-08-13T16:59:08.152Z,1.50
2017-08-13T17:01:36.179Z,1.50
2017-08-13T17:04:04.199Z,1.40
2017-08-13T17:06:35.036Z,1.17
2017-08-13T17:09:03.060Z,1.47
2017-08-13T17:11:34.144Z,1.93
2017-08-13T17:14:06.827Z,1.50
2017-08-13T17:16:35.803Z,1.20
2017-08-13T17:19:07.475Z,1.53
2017-08-13T17:21:37.391Z,1.80
2017-08-13T17:24:05.412Z,1.53
2017-08-13T17:26:35.339Z,1.40
2017-08-13T17:29:05.272Z,1.30
2017-08-13T17:31:38.519Z,1.37
2017-08-13T17:34:07.455Z,2.07
2017-08-13T17:36:35.472Z,1.30
2017-08-13T17:39:03.499Z,1.37
2017-08-13T17:41:31.535Z,1.70
2017-08-13T17:44:03.960Z,1.80
2017-08-13T17:46:36.574Z,1.87
2017-08-13T17:49:05.520Z,1.10
2017-08-13T17:51:34.511Z,1.60
2017-08-13T17:54:02.535Z,1.50
2017-08-13T17:56:30.563Z,1.00
2017-08-13T17:58:59.345Z,1.10
2017-08-13T18:01:46.699Z,1.93
2017-08-13T18:07:11.467Z,1.50
2017-08-13T18:09:40.447Z,2.13
2017-08-13T18:12:08.539Z,2.80
2017-08-13T18:14:39.263Z,1.60
2017-08-13T18:17:07.279Z,2.10
2017-08-13T18:19:36.391Z,1.70
2017-08-13T18:22:04.419Z,1.47
2017-08-13T18:24:33.203Z,2.00
2017-08-13T18:27:03.954Z,1.87
2017-08-13T18:29:31.975Z,1.70
2017-08-13T18:31:59.999Z,1.80
2017-08-13T18:34:28.955Z,2.03
2017-08-13T18:36:57.930Z,1.70
2017-08-13T18:39:26.931Z,1.67
2017-08-13T18:41:56.967Z,2.80
2017-08-13T18:44:25.939Z,1.70
2017-08-13T18:46:55.971Z,2.30
2017-08-13T18:49:24.762Z,2.00
2017-08-13T18:51:54.859Z,2.17
2017-08-13T18:54:23.844Z,2.03
2017-08-13T18:56:53.599Z,3.30
2017-08-13T18:59:21.627Z,2.80
2017-08-13T19:01:51.647Z,3.53
2017-08-13T19:04:19.678Z,3.50
2017-08-13T19:06:51.370Z,2.77
2017-08-13T19:09:27.830Z,2.70
2017-08-13T19:11:55.851Z,3.37
2017-08-13T19:14:23.875Z,2.03
2017-08-13T19:16:52.018Z,2.60
2017-08-13T19:19:33.227Z,2.53
2017-08-13T19:22:01.246Z,2.80
2017-08-13T19:24:30.171Z,2.50
2017-08-13T19:26:58.195Z,2.40
2017-08-13T19:29:26.986Z,3.07
2017-08-13T19:31:55.011Z,2.20
2017-08-13T19:34:26.086Z,2.90
2017-08-13T19:36:56.786Z,3.30
2017-08-13T19:39:28.287Z,3.73
2017-08-13T19:41:56.406Z,2.90
2017-08-13T19:44:29.602Z,3.17
2017-08-13T19:46:58.601Z,2.67
2017-08-13T19:49:28.602Z,3.03
2017-08-13T19:51:56.634Z,2.63
2017-08-13T19:54:24.655Z,3.20
2017-08-13T19:56:52.670Z,2.60
2017-08-13T19:59:22.654Z,3.37
2017-08-13T20:01:51.566Z,4.00
2017-08-13T20:04:19.587Z,3.70
2017-08-13T20:06:47.639Z,2.67
2017-08-13T20:09:17.590Z,2.33
2017-08-13T20:11:45.602Z,3.27
2017-08-13T20:14:13.630Z,4.23
2017-08-13T20:16:43.642Z,5.00
2017-08-13T20:19:13.570Z,4.00
2017-08-13T20:21:49.378Z,3.80
2017-08-13T20:24:18.402Z,4.30
2017-08-13T20:26:47.303Z,4.60
2017-08-13T20:29:17.994Z,5.17
2017-08-13T20:31:46.014Z,6.00
2017-08-13T20:34:14.943Z,4.10
2017-08-13T20:36:42.978Z,4.30
2017-08-13T20:39:11.766Z,4.10
2017-08-13T20:41:40.550Z,3.90
2017-08-13T20:46:50.753Z,3.70
2017-08-13T20:49:24.493Z,3.50
2017-08-13T20:51:52.502Z,4.07
2017-08-13T20:54:20.550Z,3.37
2017-08-13T20:56:54.465Z,5.00
2017-08-13T20:59:23.438Z,3.90
2017-08-13T21:01:51.484Z,3.50
2017-08-13T21:04:20.516Z,3.50
2017-08-13T21:06:48.542Z,3.70
2017-08-13T21:09:18.497Z,3.30
2017-08-13T21:11:48.444Z,3.90
2017-08-13T21:14:20.285Z,3.50
2017-08-13T21:16:51.186Z,4.50
2017-08-13T21:19:36.245Z,3.80
2017-08-13T21:22:04.305Z,3.30
2017-08-13T21:24:34.281Z,3.40
2017-08-13T21:27:04.106Z,3.90
2017-08-13T21:29:32.890Z,3.53
2017-08-13T21:32:00.966Z,3.90
2017-08-13T21:34:29.061Z,3.00
2017-08-13T21:36:57.130Z,3.70
2017-08-13T21:39:28.526Z,3.70
2017-08-13T21:41:56.601Z,3.30
2017-08-13T21:44:37.565Z,3.50
2017-08-13T21:47:05.606Z,5.00
2017-08-13T21:49:41.765Z,3.70
2017-08-13T21:52:10.857Z,4.70
2017-08-13T21:54:40.805Z,5.50
2017-08-13T21:57:09.806Z,4.37
2017-08-13T21:59:38.795Z,5.30
2017-08-13T22:02:06.817Z,3.67
2017-08-13T22:04:35.858Z,2.80
2017-08-13T22:07:03.897Z,3.83
2017-08-13T22:09:32.905Z,7.30
2017-08-13T22:12:02.922Z,3.97
2017-08-13T22:14:34.081Z,3.73
2017-08-13T22:17:02.125Z,3.80
2017-08-13T22:19:30.157Z,2.83
2017-08-13T22:21:58.189Z,3.73
2017-08-13T22:24:26.258Z,5.20
2017-08-13T22:26:54.273Z,3.30
2017-08-13T22:29:24.256Z,4.00
2017-08-13T22:31:54.972Z,4.20
2017-08-13T22:34:23.001Z,3.53
2017-08-13T22:36:51.942Z,5.67
2017-08-13T22:39:19.953Z,3.83
2017-08-13T22:41:49.005Z,5.77
2017-08-13T22:44:17.051Z,4.17
2017-08-13T22:46:46.053Z,4.70
2017-08-13T22:49:17.105Z,4.27
2017-08-13T22:51:48.761Z,5.60
2017-08-13T22:54:16.817Z,5.10
2017-08-13T22:56:46.838Z,4.60
2017-08-13T22:59:15.833Z,5.00
2017-08-13T23:01:43.886Z,6.00
2017-08-13T23:04:12.813Z,4.40
2017-08-13T23:06:41.649Z,4.83
2017-08-13T23:09:09.704Z,5.83
2017-08-13T23:11:37.742Z,3.67
2017-08-13T23:14:06.537Z,5.20
2017-08-13T23:16:39.405Z,4.40
2017-08-13T23:19:07.429Z,4.67
2017-08-13T23:21:35.469Z,4.87
2017-08-13T23:24:03.496Z,4.03
2017-08-13T23:26:32.444Z,4.07
2017-08-13T23:29:00.468Z,4.00
2017-08-13T23:31:28.509Z,3.60
2017-08-13T23:33:56.536Z,4.07
2017-08-13T23:36:24.548Z,5.77
2017-08-13T23:38:52.604Z,3.87
2017-08-13T23:41:21.549Z,3.93
2017-08-13T23:43:50.532Z,3.83
2017-08-13T23:46:21.472Z,3.67
2017-08-13T23:48:49.508Z,3.90
2017-08-13T23:51:18.548Z,5.20
2017-08-13T23:53:47.533Z,3.50
2017-08-13T23:56:15.564Z,3.30
2017-08-13T23:58:44.584Z,9.33
